Huanghuashi, China
Current Conditions -  °F | °C
As of 12:00 PM on Sunday 23 Nov 2014 (Local Time) from ZGHA Reporting Station
Light Rain Light Rain  
Wind Chill: 61°   Ceiling: 600
Heat Index: 61°   Visibility: 0.75mi
Dew Point: 54°   Wind: 7mph
Humidity: 77%   Direction: 300°WNW
Pressure: 30.06"   Gusts: NA
Location:  28.22°N, 113.28°E
Report Text: ZGHA 230400Z 30003MPS 250V340 1200 R36/1000N -RA BRBKN00616/12 Q1018 NOSIG
Loading
Personal Weather Stations






























Interactive Weather Map New forecast layout! Learn more

10-Day Weather Forecast

Advertisements
Track Severe Weather on mobile